sensor_id;sensor_type;location;lat;lon;timestamp;P1;durP1;ratioP1;P2;durP2;ratioP2
59766;SDS011;46248;58.364;25.582;2022-07-23T00:02:46;15.52;;;10.75;;
59766;SDS011;46248;58.364;25.582;2022-07-23T00:06:08;10.45;;;9.05;;
59766;SDS011;46248;58.364;25.582;2022-07-23T00:09:30;13.65;;;8.95;;
59766;SDS011;46248;58.364;25.582;2022-07-23T00:12:52;11.77;;;8.68;;
59766;SDS011;46248;58.364;25.582;2022-07-23T00:16:15;12.80;;;9.48;;
59766;SDS011;46248;58.364;25.582;2022-07-23T00:19:37;14.70;;;9.80;;
59766;SDS011;46248;58.364;25.582;2022-07-23T00:22:59;11.45;;;8.68;;
59766;SDS011;46248;58.364;25.582;2022-07-23T00:26:21;11.55;;;8.77;;
59766;SDS011;46248;58.364;25.582;2022-07-23T00:29:43;11.90;;;8.07;;
59766;SDS011;46248;58.364;25.582;2022-07-23T00:33:07;11.18;;;7.80;;
59766;SDS011;46248;58.364;25.582;2022-07-23T00:36:29;9.82;;;8.82;;
59766;SDS011;46248;58.364;25.582;2022-07-23T00:39:52;12.45;;;8.10;;
59766;SDS011;46248;58.364;25.582;2022-07-23T00:43:14;13.80;;;8.80;;
59766;SDS011;46248;58.364;25.582;2022-07-23T00:46:36;10.63;;;8.82;;
59766;SDS011;46248;58.364;25.582;2022-07-23T00:49:59;12.65;;;9.90;;
59766;SDS011;46248;58.364;25.582;2022-07-23T00:53:22;12.30;;;8.98;;
59766;SDS011;46248;58.364;25.582;2022-07-23T00:56:45;14.32;;;10.48;;
59766;SDS011;46248;58.364;25.582;2022-07-23T01:00:08;14.68;;;10.23;;
59766;SDS011;46248;58.364;25.582;2022-07-23T01:03:32;12.57;;;10.05;;
59766;SDS011;46248;58.364;25.582;2022-07-23T01:06:55;16.63;;;11.90;;
59766;SDS011;46248;58.364;25.582;2022-07-23T01:10:17;15.05;;;10.57;;
59766;SDS011;46248;58.364;25.582;2022-07-23T01:13:55;12.82;;;10.40;;
59766;SDS011;46248;58.364;25.582;2022-07-23T01:17:17;14.00;;;9.90;;
59766;SDS011;46248;58.364;25.582;2022-07-23T01:20:39;11.43;;;8.43;;
59766;SDS011;46248;58.364;25.582;2022-07-23T01:24:03;13.60;;;11.18;;
59766;SDS011;46248;58.364;25.582;2022-07-23T01:27:26;12.27;;;9.35;;
59766;SDS011;46248;58.364;25.582;2022-07-23T01:30:48;16.42;;;11.55;;
59766;SDS011;46248;58.364;25.582;2022-07-23T01:34:10;17.55;;;12.05;;
59766;SDS011;46248;58.364;25.582;2022-07-23T01:37:32;13.48;;;9.85;;
59766;SDS011;46248;58.364;25.582;2022-07-23T01:40:56;14.10;;;11.48;;
59766;SDS011;46248;58.364;25.582;2022-07-23T01:44:18;16.95;;;12.13;;
59766;SDS011;46248;58.364;25.582;2022-07-23T01:47:39;17.00;;;11.25;;
59766;SDS011;46248;58.364;25.582;2022-07-23T01:51:02;20.88;;;13.38;;
59766;SDS011;46248;58.364;25.582;2022-07-23T01:54:24;20.65;;;13.85;;
59766;SDS011;46248;58.364;25.582;2022-07-23T01:57:47;18.38;;;13.90;;
59766;SDS011;46248;58.364;25.582;2022-07-23T02:01:10;17.23;;;12.50;;
59766;SDS011;46248;58.364;25.582;2022-07-23T02:04:34;16.00;;;12.05;;
59766;SDS011;46248;58.364;25.582;2022-07-23T02:07:56;17.92;;;12.23;;
59766;SDS011;46248;58.364;25.582;2022-07-23T02:11:18;13.48;;;11.15;;
59766;SDS011;46248;58.364;25.582;2022-07-23T02:14:42;21.15;;;14.02;;
59766;SDS011;46248;58.364;25.582;2022-07-23T02:18:04;25.65;;;15.02;;
59766;SDS011;46248;58.364;25.582;2022-07-23T02:21:28;19.08;;;14.88;;
59766;SDS011;46248;58.364;25.582;2022-07-23T02:24:50;21.63;;;16.33;;
59766;SDS011;46248;58.364;25.582;2022-07-23T02:28:12;24.50;;;18.35;;
59766;SDS011;46248;58.364;25.582;2022-07-23T02:31:36;23.83;;;16.52;;
59766;SDS011;46248;58.364;25.582;2022-07-23T02:34:58;26.27;;;17.15;;
59766;SDS011;46248;58.364;25.582;2022-07-23T02:38:20;21.00;;;16.27;;
59766;SDS011;46248;58.364;25.582;2022-07-23T02:41:42;29.60;;;18.52;;
59766;SDS011;46248;58.364;25.582;2022-07-23T02:45:04;23.50;;;15.93;;
59766;SDS011;46248;58.364;25.582;2022-07-23T02:48:29;28.40;;;16.02;;
59766;SDS011;46248;58.364;25.582;2022-07-23T02:51:53;29.63;;;18.83;;
59766;SDS011;46248;58.364;25.582;2022-07-23T02:55:15;34.28;;;20.02;;
59766;SDS011;46248;58.364;25.582;2022-07-23T02:58:37;26.50;;;17.58;;
59766;SDS011;46248;58.364;25.582;2022-07-23T03:01:59;27.45;;;16.77;;
59766;SDS011;46248;58.364;25.582;2022-07-23T03:05:23;28.70;;;18.10;;
59766;SDS011;46248;58.364;25.582;2022-07-23T03:08:45;27.55;;;17.02;;
59766;SDS011;46248;58.364;25.582;2022-07-23T03:12:07;24.75;;;16.85;;
59766;SDS011;46248;58.364;25.582;2022-07-23T03:15:33;21.00;;;16.25;;
59766;SDS011;46248;58.364;25.582;2022-07-23T03:18:55;25.33;;;17.70;;
59766;SDS011;46248;58.364;25.582;2022-07-23T03:22:19;24.25;;;15.82;;
59766;SDS011;46248;58.364;25.582;2022-07-23T03:25:42;28.90;;;16.85;;
59766;SDS011;46248;58.364;25.582;2022-07-23T03:29:07;23.27;;;15.90;;
59766;SDS011;46248;58.364;25.582;2022-07-23T03:32:29;27.90;;;17.85;;
59766;SDS011;46248;58.364;25.582;2022-07-23T03:35:51;27.35;;;18.08;;
59766;SDS011;46248;58.364;25.582;2022-07-23T03:39:15;21.10;;;14.98;;
59766;SDS011;46248;58.364;25.582;2022-07-23T03:42:37;23.02;;;15.65;;
59766;SDS011;46248;58.364;25.582;2022-07-23T03:46:01;24.90;;;16.85;;
59766;SDS011;46248;58.364;25.582;2022-07-23T03:49:23;26.48;;;17.77;;
59766;SDS011;46248;58.364;25.582;2022-07-23T03:52:45;28.60;;;18.15;;
59766;SDS011;46248;58.364;25.582;2022-07-23T03:56:08;28.77;;;18.63;;
59766;SDS011;46248;58.364;25.582;2022-07-23T03:59:30;21.98;;;15.77;;
59766;SDS011;46248;58.364;25.582;2022-07-23T04:02:52;29.80;;;18.50;;
59766;SDS011;46248;58.364;25.582;2022-07-23T04:06:14;23.60;;;15.88;;
59766;SDS011;46248;58.364;25.582;2022-07-23T04:09:36;29.95;;;17.98;;
59766;SDS011;46248;58.364;25.582;2022-07-23T04:13:06;25.05;;;17.15;;
59766;SDS011;46248;58.364;25.582;2022-07-23T04:16:29;34.30;;;21.27;;
59766;SDS011;46248;58.364;25.582;2022-07-23T04:19:51;29.23;;;18.77;;
59766;SDS011;46248;58.364;25.582;2022-07-23T04:23:13;25.95;;;16.77;;
59766;SDS011;46248;58.364;25.582;2022-07-23T04:26:35;26.88;;;16.92;;
59766;SDS011;46248;58.364;25.582;2022-07-23T04:29:58;25.48;;;18.42;;
59766;SDS011;46248;58.364;25.582;2022-07-23T04:33:20;24.00;;;17.10;;
59766;SDS011;46248;58.364;25.582;2022-07-23T04:36:42;30.45;;;19.40;;
59766;SDS011;46248;58.364;25.582;2022-07-23T04:40:05;25.63;;;17.67;;
59766;SDS011;46248;58.364;25.582;2022-07-23T04:43:27;27.30;;;18.45;;
59766;SDS011;46248;58.364;25.582;2022-07-23T04:46:51;27.50;;;17.70;;
59766;SDS011;46248;58.364;25.582;2022-07-23T04:50:13;26.13;;;19.23;;
59766;SDS011;46248;58.364;25.582;2022-07-23T04:53:39;32.05;;;23.75;;
59766;SDS011;46248;58.364;25.582;2022-07-23T04:57:01;29.52;;;22.73;;
59766;SDS011;46248;58.364;25.582;2022-07-23T05:00:23;28.70;;;19.15;;
59766;SDS011;46248;58.364;25.582;2022-07-23T05:03:46;25.55;;;17.65;;
59766;SDS011;46248;58.364;25.582;2022-07-23T05:07:09;28.05;;;18.98;;
59766;SDS011;46248;58.364;25.582;2022-07-23T05:10:31;29.13;;;21.90;;
59766;SDS011;46248;58.364;25.582;2022-07-23T05:13:53;28.80;;;19.48;;
59766;SDS011;46248;58.364;25.582;2022-07-23T05:17:15;24.60;;;19.35;;
59766;SDS011;46248;58.364;25.582;2022-07-23T05:20:38;23.02;;;17.42;;
59766;SDS011;46248;58.364;25.582;2022-07-23T05:24:00;25.92;;;19.13;;
59766;SDS011;46248;58.364;25.582;2022-07-23T05:27:22;24.52;;;17.45;;
59766;SDS011;46248;58.364;25.582;2022-07-23T05:30:44;25.38;;;18.40;;
59766;SDS011;46248;58.364;25.582;2022-07-23T05:34:07;23.30;;;18.48;;
59766;SDS011;46248;58.364;25.582;2022-07-23T05:37:36;19.20;;;15.43;;
59766;SDS011;46248;58.364;25.582;2022-07-23T05:40:58;27.13;;;19.90;;
59766;SDS011;46248;58.364;25.582;2022-07-23T05:44:21;31.63;;;22.05;;
59766;SDS011;46248;58.364;25.582;2022-07-23T05:47:44;34.33;;;23.50;;
59766;SDS011;46248;58.364;25.582;2022-07-23T05:51:07;25.35;;;18.40;;
59766;SDS011;46248;58.364;25.582;2022-07-23T05:54:31;18.80;;;16.30;;
59766;SDS011;46248;58.364;25.582;2022-07-23T05:57:55;25.02;;;16.25;;
59766;SDS011;46248;58.364;25.582;2022-07-23T06:01:17;22.67;;;18.45;;
59766;SDS011;46248;58.364;25.582;2022-07-23T06:04:38;22.23;;;15.68;;
59766;SDS011;46248;58.364;25.582;2022-07-23T06:08:00;18.73;;;15.32;;
59766;SDS011;46248;58.364;25.582;2022-07-23T06:11:24;19.17;;;14.98;;
59766;SDS011;46248;58.364;25.582;2022-07-23T06:14:46;15.52;;;13.65;;
59766;SDS011;46248;58.364;25.582;2022-07-23T06:18:09;15.10;;;12.98;;
59766;SDS011;46248;58.364;25.582;2022-07-23T06:21:32;18.58;;;14.15;;
59766;SDS011;46248;58.364;25.582;2022-07-23T06:25:09;19.75;;;16.65;;
59766;SDS011;46248;58.364;25.582;2022-07-23T06:28:40;17.10;;;14.38;;
59766;SDS011;46248;58.364;25.582;2022-07-23T06:32:02;16.42;;;13.25;;
59766;SDS011;46248;58.364;25.582;2022-07-23T06:35:24;14.57;;;11.93;;
59766;SDS011;46248;58.364;25.582;2022-07-23T06:38:46;15.00;;;12.07;;
59766;SDS011;46248;58.364;25.582;2022-07-23T06:42:08;13.98;;;11.27;;
59766;SDS011;46248;58.364;25.582;2022-07-23T06:45:32;13.02;;;11.15;;
59766;SDS011;46248;58.364;25.582;2022-07-23T06:48:54;13.18;;;9.23;;
59766;SDS011;46248;58.364;25.582;2022-07-23T06:52:16;12.65;;;10.10;;
59766;SDS011;46248;58.364;25.582;2022-07-23T06:55:38;12.82;;;9.63;;
59766;SDS011;46248;58.364;25.582;2022-07-23T06:59:00;11.93;;;9.82;;
59766;SDS011;46248;58.364;25.582;2022-07-23T07:02:24;9.40;;;7.80;;
59766;SDS011;46248;58.364;25.582;2022-07-23T07:05:46;9.77;;;7.90;;
59766;SDS011;46248;58.364;25.582;2022-07-23T07:09:10;9.45;;;7.90;;
59766;SDS011;46248;58.364;25.582;2022-07-23T07:12:32;12.30;;;8.93;;
59766;SDS011;46248;58.364;25.582;2022-07-23T07:15:54;10.57;;;7.63;;
59766;SDS011;46248;58.364;25.582;2022-07-23T07:19:17;8.50;;;7.15;;
59766;SDS011;46248;58.364;25.582;2022-07-23T07:22:40;12.70;;;8.48;;
59766;SDS011;46248;58.364;25.582;2022-07-23T07:26:02;10.40;;;7.85;;
59766;SDS011;46248;58.364;25.582;2022-07-23T07:29:25;6.95;;;6.35;;
59766;SDS011;46248;58.364;25.582;2022-07-23T07:32:47;6.85;;;6.10;;
59766;SDS011;46248;58.364;25.582;2022-07-23T07:36:18;9.32;;;6.38;;
59766;SDS011;46248;58.364;25.582;2022-07-23T07:39:40;9.52;;;6.72;;
59766;SDS011;46248;58.364;25.582;2022-07-23T07:43:02;9.77;;;5.72;;
59766;SDS011;46248;58.364;25.582;2022-07-23T07:46:24;7.35;;;6.50;;
59766;SDS011;46248;58.364;25.582;2022-07-23T07:49:48;5.85;;;5.25;;
59766;SDS011;46248;58.364;25.582;2022-07-23T07:53:11;10.48;;;5.80;;
59766;SDS011;46248;58.364;25.582;2022-07-23T07:56:33;8.90;;;6.07;;
59766;SDS011;46248;58.364;25.582;2022-07-23T07:59:55;8.00;;;6.13;;
59766;SDS011;46248;58.364;25.582;2022-07-23T08:03:24;13.27;;;6.90;;
59766;SDS011;46248;58.364;25.582;2022-07-23T08:06:47;7.25;;;5.43;;
59766;SDS011;46248;58.364;25.582;2022-07-23T08:10:10;9.18;;;6.70;;
59766;SDS011;46248;58.364;25.582;2022-07-23T08:13:32;9.57;;;6.38;;
59766;SDS011;46248;58.364;25.582;2022-07-23T08:16:54;9.13;;;5.90;;
59766;SDS011;46248;58.364;25.582;2022-07-23T08:20:33;7.93;;;6.10;;
59766;SDS011;46248;58.364;25.582;2022-07-23T08:23:55;6.32;;;5.15;;
59766;SDS011;46248;58.364;25.582;2022-07-23T08:27:19;6.93;;;4.88;;
59766;SDS011;46248;58.364;25.582;2022-07-23T08:30:42;6.00;;;5.35;;
59766;SDS011;46248;58.364;25.582;2022-07-23T08:34:05;6.18;;;5.57;;
59766;SDS011;46248;58.364;25.582;2022-07-23T08:37:27;6.32;;;5.50;;
59766;SDS011;46248;58.364;25.582;2022-07-23T08:40:50;6.18;;;5.18;;
59766;SDS011;46248;58.364;25.582;2022-07-23T08:44:16;5.82;;;5.32;;
59766;SDS011;46248;58.364;25.582;2022-07-23T08:47:38;6.95;;;5.50;;
59766;SDS011;46248;58.364;25.582;2022-07-23T08:51:03;7.07;;;6.18;;
59766;SDS011;46248;58.364;25.582;2022-07-23T08:54:27;6.22;;;5.32;;
59766;SDS011;46248;58.364;25.582;2022-07-23T08:57:49;6.53;;;5.72;;
59766;SDS011;46248;58.364;25.582;2022-07-23T09:01:13;7.95;;;6.40;;
59766;SDS011;46248;58.364;25.582;2022-07-23T09:04:35;13.60;;;7.95;;
59766;SDS011;46248;58.364;25.582;2022-07-23T09:08:05;7.13;;;6.40;;
59766;SDS011;46248;58.364;25.582;2022-07-23T09:11:28;6.22;;;5.70;;
59766;SDS011;46248;58.364;25.582;2022-07-23T09:14:50;8.05;;;5.75;;
59766;SDS011;46248;58.364;25.582;2022-07-23T09:18:14;8.98;;;6.07;;
59766;SDS011;46248;58.364;25.582;2022-07-23T09:21:37;6.10;;;5.05;;
59766;SDS011;46248;58.364;25.582;2022-07-23T09:25:04;9.10;;;6.07;;
59766;SDS011;46248;58.364;25.582;2022-07-23T09:28:28;5.80;;;5.30;;
59766;SDS011;46248;58.364;25.582;2022-07-23T09:31:51;6.22;;;5.60;;
59766;SDS011;46248;58.364;25.582;2022-07-23T09:35:15;6.55;;;5.43;;
59766;SDS011;46248;58.364;25.582;2022-07-23T09:38:38;7.65;;;6.15;;
59766;SDS011;46248;58.364;25.582;2022-07-23T09:42:13;7.03;;;5.55;;
59766;SDS011;46248;58.364;25.582;2022-07-23T09:45:35;6.35;;;5.30;;
59766;SDS011;46248;58.364;25.582;2022-07-23T09:48:59;8.25;;;6.38;;
59766;SDS011;46248;58.364;25.582;2022-07-23T09:52:34;7.78;;;5.38;;
59766;SDS011;46248;58.364;25.582;2022-07-23T09:55:58;8.52;;;6.30;;
59766;SDS011;46248;58.364;25.582;2022-07-23T09:59:22;6.55;;;5.55;;
59766;SDS011;46248;58.364;25.582;2022-07-23T10:02:46;5.85;;;5.28;;
59766;SDS011;46248;58.364;25.582;2022-07-23T10:06:09;6.88;;;5.57;;
59766;SDS011;46248;58.364;25.582;2022-07-23T10:09:33;8.10;;;7.25;;
59766;SDS011;46248;58.364;25.582;2022-07-23T10:12:56;7.75;;;5.88;;
59766;SDS011;46248;58.364;25.582;2022-07-23T10:16:41;8.57;;;6.43;;
59766;SDS011;46248;58.364;25.582;2022-07-23T10:20:04;6.15;;;5.55;;
59766;SDS011;46248;58.364;25.582;2022-07-23T10:23:28;9.20;;;6.72;;
59766;SDS011;46248;58.364;25.582;2022-07-23T10:27:01;8.48;;;6.50;;
59766;SDS011;46248;58.364;25.582;2022-07-23T10:30:33;6.20;;;5.63;;
59766;SDS011;46248;58.364;25.582;2022-07-23T10:34:06;5.43;;;4.93;;
59766;SDS011;46248;58.364;25.582;2022-07-23T10:37:35;6.72;;;5.28;;
59766;SDS011;46248;58.364;25.582;2022-07-23T10:41:00;5.35;;;4.85;;
59766;SDS011;46248;58.364;25.582;2022-07-23T10:44:33;7.40;;;5.57;;
59766;SDS011;46248;58.364;25.582;2022-07-23T10:48:11;5.35;;;4.85;;
59766;SDS011;46248;58.364;25.582;2022-07-23T10:51:35;5.25;;;4.75;;
59766;SDS011;46248;58.364;25.582;2022-07-23T10:58:59;5.72;;;4.88;;
59766;SDS011;46248;58.364;25.582;2022-07-23T11:02:27;6.25;;;4.70;;
59766;SDS011;46248;58.364;25.582;2022-07-23T11:05:51;6.07;;;4.57;;
59766;SDS011;46248;58.364;25.582;2022-07-23T11:09:25;4.88;;;4.40;;
59766;SDS011;46248;58.364;25.582;2022-07-23T11:12:47;5.47;;;4.78;;
59766;SDS011;46248;58.364;25.582;2022-07-23T11:16:19;6.28;;;4.93;;
59766;SDS011;46248;58.364;25.582;2022-07-23T11:27:25;5.13;;;4.30;;
59766;SDS011;46248;58.364;25.582;2022-07-23T11:30:58;4.10;;;3.70;;
59766;SDS011;46248;58.364;25.582;2022-07-23T11:34:24;4.63;;;3.17;;
59766;SDS011;46248;58.364;25.582;2022-07-23T11:37:50;4.40;;;3.25;;
59766;SDS011;46248;58.364;25.582;2022-07-23T11:41:18;4.88;;;4.47;;
59766;SDS011;46248;58.364;25.582;2022-07-23T11:44:40;4.50;;;4.10;;
59766;SDS011;46248;58.364;25.582;2022-07-23T11:48:03;4.70;;;3.45;;
59766;SDS011;46248;58.364;25.582;2022-07-23T11:51:28;4.15;;;3.70;;
59766;SDS011;46248;58.364;25.582;2022-07-23T11:54:54;4.35;;;3.95;;
59766;SDS011;46248;58.364;25.582;2022-07-23T11:58:17;6.03;;;4.57;;
59766;SDS011;46248;58.364;25.582;2022-07-23T12:01:49;4.88;;;3.97;;
59766;SDS011;46248;58.364;25.582;2022-07-23T12:05:18;8.05;;;5.72;;
59766;SDS011;46248;58.364;25.582;2022-07-23T12:08:41;5.18;;;4.43;;
59766;SDS011;46248;58.364;25.582;2022-07-23T12:12:06;6.65;;;5.25;;
59766;SDS011;46248;58.364;25.582;2022-07-23T12:15:29;5.75;;;5.13;;
59766;SDS011;46248;58.364;25.582;2022-07-23T12:18:53;6.97;;;5.43;;
59766;SDS011;46248;58.364;25.582;2022-07-23T12:22:15;6.07;;;5.50;;
59766;SDS011;46248;58.364;25.582;2022-07-23T12:25:38;5.20;;;4.28;;
59766;SDS011;46248;58.364;25.582;2022-07-23T12:29:04;6.40;;;5.47;;
59766;SDS011;46248;58.364;25.582;2022-07-23T12:32:27;6.75;;;4.82;;
59766;SDS011;46248;58.364;25.582;2022-07-23T12:35:50;6.13;;;4.72;;
59766;SDS011;46248;58.364;25.582;2022-07-23T12:39:20;5.30;;;4.07;;
59766;SDS011;46248;58.364;25.582;2022-07-23T12:42:52;5.35;;;4.10;;
59766;SDS011;46248;58.364;25.582;2022-07-23T12:46:17;3.72;;;3.20;;
59766;SDS011;46248;58.364;25.582;2022-07-23T12:49:40;4.93;;;3.67;;
59766;SDS011;46248;58.364;25.582;2022-07-23T12:53:10;5.50;;;3.83;;
59766;SDS011;46248;58.364;25.582;2022-07-23T12:56:38;5.43;;;3.70;;
59766;SDS011;46248;58.364;25.582;2022-07-23T13:00:08;5.68;;;3.50;;
59766;SDS011;46248;58.364;25.582;2022-07-23T13:03:33;3.63;;;2.83;;
59766;SDS011;46248;58.364;25.582;2022-07-23T13:06:59;3.72;;;2.95;;
59766;SDS011;46248;58.364;25.582;2022-07-23T13:10:24;7.70;;;4.20;;
59766;SDS011;46248;58.364;25.582;2022-07-23T13:13:46;7.90;;;5.95;;
59766;SDS011;46248;58.364;25.582;2022-07-23T13:17:08;7.57;;;3.08;;
59766;SDS011;46248;58.364;25.582;2022-07-23T13:20:32;4.85;;;3.30;;
59766;SDS011;46248;58.364;25.582;2022-07-23T13:23:54;6.88;;;3.70;;
59766;SDS011;46248;58.364;25.582;2022-07-23T13:27:17;5.72;;;3.15;;
59766;SDS011;46248;58.364;25.582;2022-07-23T13:30:39;5.72;;;3.47;;
59766;SDS011;46248;58.364;25.582;2022-07-23T13:34:02;7.30;;;3.65;;
59766;SDS011;46248;58.364;25.582;2022-07-23T13:37:28;6.13;;;2.58;;
59766;SDS011;46248;58.364;25.582;2022-07-23T13:40:50;5.20;;;2.83;;
59766;SDS011;46248;58.364;25.582;2022-07-23T13:44:13;6.68;;;4.07;;
59766;SDS011;46248;58.364;25.582;2022-07-23T13:47:35;10.85;;;5.28;;
59766;SDS011;46248;58.364;25.582;2022-07-23T13:50:57;5.30;;;3.30;;
59766;SDS011;46248;58.364;25.582;2022-07-23T13:54:21;7.35;;;3.40;;
59766;SDS011;46248;58.364;25.582;2022-07-23T13:57:43;2.63;;;2.15;;
59766;SDS011;46248;58.364;25.582;2022-07-23T14:01:06;2.50;;;1.83;;
59766;SDS011;46248;58.364;25.582;2022-07-23T14:04:28;5.30;;;2.50;;
59766;SDS011;46248;58.364;25.582;2022-07-23T14:07:50;5.45;;;2.90;;
59766;SDS011;46248;58.364;25.582;2022-07-23T14:11:15;5.00;;;2.60;;
59766;SDS011;46248;58.364;25.582;2022-07-23T14:14:38;4.30;;;2.10;;
59766;SDS011;46248;58.364;25.582;2022-07-23T14:18:00;3.55;;;1.98;;
59766;SDS011;46248;58.364;25.582;2022-07-23T14:21:22;3.22;;;2.15;;
59766;SDS011;46248;58.364;25.582;2022-07-23T14:24:44;3.22;;;2.13;;
59766;SDS011;46248;58.364;25.582;2022-07-23T14:28:07;4.40;;;1.88;;
59766;SDS011;46248;58.364;25.582;2022-07-23T14:31:32;3.65;;;2.05;;
59766;SDS011;46248;58.364;25.582;2022-07-23T14:34:55;5.35;;;2.13;;
59766;SDS011;46248;58.364;25.582;2022-07-23T14:38:18;4.13;;;2.10;;
59766;SDS011;46248;58.364;25.582;2022-07-23T14:41:40;6.18;;;2.13;;
59766;SDS011;46248;58.364;25.582;2022-07-23T14:45:03;6.55;;;2.40;;
59766;SDS011;46248;58.364;25.582;2022-07-23T14:48:46;4.57;;;2.10;;
59766;SDS011;46248;58.364;25.582;2022-07-23T14:52:08;5.15;;;2.30;;
59766;SDS011;46248;58.364;25.582;2022-07-23T14:55:31;3.83;;;2.47;;
59766;SDS011;46248;58.364;25.582;2022-07-23T14:58:53;5.50;;;2.90;;
59766;SDS011;46248;58.364;25.582;2022-07-23T15:02:18;4.60;;;3.10;;
59766;SDS011;46248;58.364;25.582;2022-07-23T15:05:40;5.22;;;3.03;;
59766;SDS011;46248;58.364;25.582;2022-07-23T15:09:03;4.80;;;3.78;;
59766;SDS011;46248;58.364;25.582;2022-07-23T15:12:26;2.53;;;2.25;;
59766;SDS011;46248;58.364;25.582;2022-07-23T15:15:48;7.82;;;2.70;;
59766;SDS011;46248;58.364;25.582;2022-07-23T15:19:16;4.78;;;2.88;;
59766;SDS011;46248;58.364;25.582;2022-07-23T15:22:39;4.97;;;2.38;;
59766;SDS011;46248;58.364;25.582;2022-07-23T15:26:01;5.07;;;2.40;;
59766;SDS011;46248;58.364;25.582;2022-07-23T15:29:23;7.30;;;2.60;;
59766;SDS011;46248;58.364;25.582;2022-07-23T15:32:45;7.53;;;3.05;;
59766;SDS011;46248;58.364;25.582;2022-07-23T15:36:09;4.00;;;3.45;;
59766;SDS011;46248;58.364;25.582;2022-07-23T15:39:31;7.93;;;3.20;;
59766;SDS011;46248;58.364;25.582;2022-07-23T15:42:53;4.68;;;3.17;;
59766;SDS011;46248;58.364;25.582;2022-07-23T15:46:16;4.93;;;3.00;;
59766;SDS011;46248;58.364;25.582;2022-07-23T15:49:46;6.55;;;3.70;;
59766;SDS011;46248;58.364;25.582;2022-07-23T15:53:10;6.68;;;2.72;;
59766;SDS011;46248;58.364;25.582;2022-07-23T15:56:34;4.80;;;2.83;;
59766;SDS011;46248;58.364;25.582;2022-07-23T15:59:57;4.00;;;2.33;;
59766;SDS011;46248;58.364;25.582;2022-07-23T16:03:19;5.85;;;2.72;;
59766;SDS011;46248;58.364;25.582;2022-07-23T16:06:41;4.60;;;2.15;;
59766;SDS011;46248;58.364;25.582;2022-07-23T16:10:05;3.13;;;2.08;;
59766;SDS011;46248;58.364;25.582;2022-07-23T16:13:30;3.65;;;2.13;;
59766;SDS011;46248;58.364;25.582;2022-07-23T16:16:52;2.80;;;1.85;;
59766;SDS011;46248;58.364;25.582;2022-07-23T16:20:14;8.15;;;2.47;;
59766;SDS011;46248;58.364;25.582;2022-07-23T16:23:36;6.70;;;2.38;;
59766;SDS011;46248;58.364;25.582;2022-07-23T16:26:59;4.70;;;2.25;;
59766;SDS011;46248;58.364;25.582;2022-07-23T16:30:25;6.35;;;2.35;;
59766;SDS011;46248;58.364;25.582;2022-07-23T16:33:47;3.92;;;3.38;;
59766;SDS011;46248;58.364;25.582;2022-07-23T16:37:09;8.88;;;7.88;;
59766;SDS011;46248;58.364;25.582;2022-07-23T16:40:32;6.05;;;3.38;;
59766;SDS011;46248;58.364;25.582;2022-07-23T16:43:56;5.10;;;3.33;;
59766;SDS011;46248;58.364;25.582;2022-07-23T16:47:18;5.07;;;2.63;;
59766;SDS011;46248;58.364;25.582;2022-07-23T16:50:40;3.55;;;2.22;;
59766;SDS011;46248;58.364;25.582;2022-07-23T16:54:02;3.63;;;2.30;;
59766;SDS011;46248;58.364;25.582;2022-07-23T16:57:25;4.65;;;2.33;;
59766;SDS011;46248;58.364;25.582;2022-07-23T17:00:48;2.63;;;1.88;;
59766;SDS011;46248;58.364;25.582;2022-07-23T17:04:10;6.50;;;2.15;;
59766;SDS011;46248;58.364;25.582;2022-07-23T17:07:32;4.68;;;2.30;;
59766;SDS011;46248;58.364;25.582;2022-07-23T17:10:55;7.45;;;2.67;;
59766;SDS011;46248;58.364;25.582;2022-07-23T17:14:17;3.42;;;2.40;;
59766;SDS011;46248;58.364;25.582;2022-07-23T17:17:40;3.90;;;2.42;;
59766;SDS011;46248;58.364;25.582;2022-07-23T17:21:02;6.22;;;2.40;;
59766;SDS011;46248;58.364;25.582;2022-07-23T17:24:26;6.15;;;2.63;;
59766;SDS011;46248;58.364;25.582;2022-07-23T17:27:48;3.50;;;2.20;;
59766;SDS011;46248;58.364;25.582;2022-07-23T17:31:11;5.25;;;3.20;;
59766;SDS011;46248;58.364;25.582;2022-07-23T17:34:34;5.40;;;2.80;;
59766;SDS011;46248;58.364;25.582;2022-07-23T17:37:56;4.95;;;2.85;;
59766;SDS011;46248;58.364;25.582;2022-07-23T17:41:18;5.25;;;3.22;;
59766;SDS011;46248;58.364;25.582;2022-07-23T17:44:40;7.90;;;2.70;;
59766;SDS011;46248;58.364;25.582;2022-07-23T17:48:02;5.75;;;2.65;;
59766;SDS011;46248;58.364;25.582;2022-07-23T17:51:26;5.05;;;3.15;;
59766;SDS011;46248;58.364;25.582;2022-07-23T17:54:48;6.25;;;3.28;;
59766;SDS011;46248;58.364;25.582;2022-07-23T17:58:10;6.95;;;3.10;;
59766;SDS011;46248;58.364;25.582;2022-07-23T18:01:32;5.10;;;3.40;;
59766;SDS011;46248;58.364;25.582;2022-07-23T18:04:55;7.80;;;3.72;;
59766;SDS011;46248;58.364;25.582;2022-07-23T18:08:18;4.25;;;2.72;;
59766;SDS011;46248;58.364;25.582;2022-07-23T18:11:41;7.03;;;3.67;;
59766;SDS011;46248;58.364;25.582;2022-07-23T18:15:04;8.18;;;3.80;;
59766;SDS011;46248;58.364;25.582;2022-07-23T18:18:26;7.63;;;3.25;;
59766;SDS011;46248;58.364;25.582;2022-07-23T18:21:49;5.05;;;2.85;;
59766;SDS011;46248;58.364;25.582;2022-07-23T18:25:14;5.55;;;3.20;;
59766;SDS011;46248;58.364;25.582;2022-07-23T18:28:36;4.63;;;2.85;;
59766;SDS011;46248;58.364;25.582;2022-07-23T18:31:58;6.32;;;2.97;;
59766;SDS011;46248;58.364;25.582;2022-07-23T18:35:22;6.07;;;3.38;;
59766;SDS011;46248;58.364;25.582;2022-07-23T18:38:44;4.78;;;2.92;;
59766;SDS011;46248;58.364;25.582;2022-07-23T18:42:15;32.55;;;19.38;;
59766;SDS011;46248;58.364;25.582;2022-07-23T18:45:38;22.38;;;15.48;;
59766;SDS011;46248;58.364;25.582;2022-07-23T18:49:00;17.20;;;8.90;;
59766;SDS011;46248;58.364;25.582;2022-07-23T18:52:22;15.68;;;8.70;;
59766;SDS011;46248;58.364;25.582;2022-07-23T18:55:44;12.23;;;7.30;;
59766;SDS011;46248;58.364;25.582;2022-07-23T18:59:07;8.05;;;5.68;;
59766;SDS011;46248;58.364;25.582;2022-07-23T19:02:42;8.65;;;4.25;;
59766;SDS011;46248;58.364;25.582;2022-07-23T19:06:05;5.47;;;3.60;;
59766;SDS011;46248;58.364;25.582;2022-07-23T19:09:27;7.28;;;4.50;;
59766;SDS011;46248;58.364;25.582;2022-07-23T19:12:54;10.70;;;5.47;;
59766;SDS011;46248;58.364;25.582;2022-07-23T19:16:17;8.10;;;6.35;;
59766;SDS011;46248;58.364;25.582;2022-07-23T19:19:39;9.27;;;5.43;;
59766;SDS011;46248;58.364;25.582;2022-07-23T19:23:01;12.18;;;6.88;;
59766;SDS011;46248;58.364;25.582;2022-07-23T19:26:23;8.38;;;4.75;;
59766;SDS011;46248;58.364;25.582;2022-07-23T19:29:45;8.55;;;4.65;;
59766;SDS011;46248;58.364;25.582;2022-07-23T19:33:09;5.80;;;4.07;;
59766;SDS011;46248;58.364;25.582;2022-07-23T19:36:31;8.50;;;5.18;;
59766;SDS011;46248;58.364;25.582;2022-07-23T19:39:53;10.50;;;4.78;;
59766;SDS011;46248;58.364;25.582;2022-07-23T19:43:15;6.05;;;4.18;;
59766;SDS011;46248;58.364;25.582;2022-07-23T19:46:37;8.25;;;4.97;;
59766;SDS011;46248;58.364;25.582;2022-07-23T19:50:00;9.75;;;4.93;;
59766;SDS011;46248;58.364;25.582;2022-07-23T19:53:22;9.93;;;5.43;;
59766;SDS011;46248;58.364;25.582;2022-07-23T19:56:44;10.77;;;4.80;;
59766;SDS011;46248;58.364;25.582;2022-07-23T20:00:07;9.50;;;5.35;;
59766;SDS011;46248;58.364;25.582;2022-07-23T20:03:30;7.75;;;4.20;;
59766;SDS011;46248;58.364;25.582;2022-07-23T20:06:53;8.43;;;4.22;;
59766;SDS011;46248;58.364;25.582;2022-07-23T20:10:15;10.07;;;4.80;;